Aérodrome :
LOGIN :

S'inscrire | Disclaimer

   EN    FR    IT 

 










Légende :    VFR   VFR Marginal   IFR   IFR Intensif   IFR Très Intensif
Visi : 
Plafond : 
>= 8 km
>= 3000ft
5 à 8 km
1000 à 3000 ft
1500m à 5 km
500 à 1000 ft
800 à 1500m
200 à 500 ft
< 800m
< 200 ft
Symboles :   Orages  Brouillard  Fortes neiges  Fortes précipitations  Vent > 20 kt
SIGMETs :   Divers  Orages  Givrage  Turbulence  Onde Orograph.  Cendres Volcan.







- Altitude de l'aérodrome : 17 ft
- Code IATA : GRQ


EHGG - Groningen Eelde

DERNIER METAR :
  • 221955Z AUTO 20005KT 9999 NSC 14/13 Q1009 TEMPO 6000

METARs EXPIRÉS :
  • 221925Z AUTO 12004KT 9999 NSC 16/14 Q1008 TEMPO 6000
  • 221855Z AUTO 16003KT 100V210 9999 NSC 17/15 Q1008 RETS BECMG NSW
  • 221825Z AUTO VRB02KT 9999 TS FEW015CB 17/15 Q1008 RERA BECMG NSW
  • 221755Z AUTO 22014G27KT 190V270 1500 +TSRA FEW002 FEW015CB SCT038 16/14 Q1008 TEMPO 3500 TSRA SCT050CB
  • 221725Z AUTO 15005KT 9999 NSC 22/12 Q1007 TEMPO 6000 SHRA FEW050CB

TAF TAF EHGG
Valide du 22 à 18h jusqu'au 24 à 00h UTC


221720Z 2218/2324 28007KT CAVOK
PROB30
TEMPO 2218/2219 28010G20KT 4000 SHRA TSRA FEW050CB
BECMG 2300/2303 25011KT
PROB40
TEMPO 2302/2305 7000 -RA BKN012
BECMG 2308/2310 26015G25KT
BECMG 2317/2319 21005KT
Pas de NOTAMs connus pour ce terrain.



MET'MAP, la Météo Aéronautique d'un coup d'oeil ! - Copyright ORBIFLY Décembre 2007 - Disclaimer

ORBIFLY MET'MAP TEAM :

Programmation & Développement : Alexandra Zaïnal
Conception & Développement : Baudouin d'Aumeries
Co-Programmation & Développement : Marc-Olivier Méhu
Soutien technique & logistique : Manuel Goepfert

Contact : metmap@orbifly.com




SOURCES & CREDITS :

   NOAA